Redington, Arizona
Current Conditions -  °F | °C
As of 10:58 AM on Monday 20 Oct 2014 (Local Time) from KDMA Reporting Station
Clear Clear  
Wind Chill: 77°   Ceiling: Unl
Heat Index: 78°   Visibility: 10mi
Dew Point: 50°   Wind: 7mph
Humidity: 38%   Direction: 100°E
Pressure: 29.97"   Gusts: NA
Location:  32.1865°N, 110.265°W
Report Text: KDMA 201758Z AUTO 10006KT 10SM CLR 25/10 A2997 RMK AO2 SLP115 T02510099 10251 20163 50001 $
Loading
Personal Weather Stations






























Interactive Weather Map
Tropical Storm Tracking
New forecast layout! Learn more

10-Day Weather Forecast

Advertisements
Track Severe Weather on mobile